Welcome to our new website - Welkom op onze vernieuwde website - Bienvenue sur notre nouveau site web - Willkommen auf unserer neuen Website


Onweer radar Meer informatie blitzortung!


Regen radar Meer informatie rain snow radar


Andere websites:

Onze vorige site

Leuven Template



Select another period ( hide this area )

Eenheden Periode Custom range Directly to
Metrisch Engels Beide
Dagelijkse Wekelijkse Maandelijkse Jaarlijkse
use both date-selectors for a custom range
previous Dag
With this date

WeatherUnderground graphs for this period ( click here )


Dagelijkse Samenvatting Maandag 30 maart 2020
Tijd Temp. ( °C ) Dew pt. ( °C ) Wind ( km/h ) van Windvlaag ( km/h ) Luchtdruk ( hPa ) Humid.( % ) Rainrate ( cm )
Hoog8,9 5,3 20,9 NW ( 203/525 ) 29,0 1031,7 91 0,50
Gemiddeld5,7 3,0 9,9 NW #15/53 16,8 1028,8 83 0,80
Laag-0,9 -2,6 -   1,6 1026,6 75 -
Dagelijkse Tabular details for Maandag 30 maart 2020
Tijd Temp. ( °C ) Dew pt. ( °C ) Wind ( km/h ) van Windvlaag ( km/h ) Luchtdruk ( hPa ) Humid.( % ) Rainrate ( cm )
00:00 -0,7 -2,3   Kalm 3,2 1031,7 89 -
00:15 -0,9 -2,6 1,6 ZW 3,2 1031,5 88 -
00:30 -0,8 -2,4 1,6 ZW 3,2 1031,3 89 -
00:45 -0,6 -2,1 1,6 ZW 3,2 1031,1 89 -
01:00 0,0 -1,4 1,6 ZW 3,2 1031,0 90 -
01:15 0,5 -1,0 1,6 ZW 3,2 1030,8 90 -
01:30 0,8 -0,8 1,6 WZW 3,2 1030,8 89 -
01:45 1,1 -0,5   Kalm 4,8 1030,7 89 -
02:00 1,4 -0,2   Kalm 1,6 1030,5 89 -
02:15 1,8 0,2   Kalm 4,8 1030,6 89 -
02:30 2,5 0,9 3,2 WZW 4,8 1030,3 89 -
02:45 3,1 1,6 6,4 WNW 9,7 1030,3 90 -
03:00 3,5 2,0 3,2 Westen 11,3 1030,0 90 -
03:15 3,7 2,2 8,0 WNW 12,9 1029,9 90 -
03:30 4,1 2,7 1,6 Westen 9,7 1030,0 91 -
03:45 4,6 3,3 4,8 WNW 12,9 1029,9 91 -
04:00 4,9 3,6 4,8 Westen 11,3 1029,9 91 -
04:15 5,4 3,9 8,0 WNW 11,3 1029,9 90 -
04:30 6,1 4,4 4,8 WNW 11,3 1029,7 89 -
04:45 6,7 4,7 8,0 NW 11,3 1029,6 87 -
05:00 6,1 3,9 9,7 NNW 17,7 1029,6 86 -
05:15 6,6 4,4 8,0 NNW 17,7 1029,4 86 -
05:30 7,1 3,8 16,1 NW 25,7 1029,4 80 -
05:45 7,5 4,1 12,9 NNW 20,9 1029,3 79 -
06:00 7,4 3,3 16,1 NW 19,3 1029,1 75 -
06:15 7,9 3,8 12,9 NW 20,9 1029,0 75 -
06:30 7,5 3,4 12,9 NW 19,3 1028,8 75 -
06:45 7,6 4,0 8,0 NW 22,5 1028,7 78 -
07:00 7,8 4,0 12,9 NNW 20,9 1028,5 77 -
07:15 8,1 4,3 14,5 NNW 19,3 1028,4 77 -
07:30 6,7 4,2 9,7 NNW 27,4 1028,4 84 0,30
07:45 8,1 5,2 14,5 NW 29,0 1028,1 82 0,30
08:00 8,7 5,0 20,9 NW 27,4 1028,0 78 0,30
08:15 8,7 4,7 20,9 NNO 24,1 1027,9 76 0,30
08:30 8,7 4,5 20,9 NNO 25,7 1027,7 75 -
08:45 8,9 4,7 12,9 NNW 22,5 1027,5 75 -
09:00 8,3 4,3 14,5 NW 22,5 1027,5 76 -
09:15 8,7 5,1 12,9 NW 25,7 1027,2 78 -
09:30 7,2 4,3 8,0 NW 27,4 1027,4 82 0,50
09:45 7,6 4,5 17,7 NNW 25,7 1027,2 81 0,50
10:00 7,6 4,5 19,3 NNW 27,4 1027,2 81 0,50
10:15 8,4 5,3 12,9 NW 24,1 1026,9 81 0,50
10:30 8,6 4,6 12,9 NW 24,1 1026,8 76 -
10:45 8,4 4,6 17,7 NW 20,9 1026,8 77 -
11:00 8,5 5,2 14,5 NW 19,3 1026,7 80 -
11:15 8,2 4,7 12,9 NNW 20,9 1026,7 79 -
11:30 7,4 4,3 12,9 NNW 22,5 1026,7 81 -
11:45 6,9 3,9 12,9 Noorden 19,3 1026,7 81 -
12:00 7,4 4,2 16,1 Noorden 22,5 1026,7 80 -
12:15 6,8 3,6 16,1 NNW 22,5 1026,6 80 -
12:30 7,3 3,5 14,5 Noorden 25,7 1026,8 77 -
12:45 6,6 3,2 9,7 Noorden 24,1 1026,8 79 -
13:00 6,6 3,4 12,9 Noorden 17,7 1026,8 80 -
Dagelijkse Samenvatting Maandag 30 maart 2020
Tijd Temp. ( °C ) Dew pt. ( °C ) Wind ( km/h ) van Windvlaag ( km/h ) Luchtdruk ( hPa ) Humid.( % ) Rainrate ( cm )
Hoog8,9 5,3 20,9 NW ( 203/525 ) 29,0 1031,7 91 0,50
Gemiddeld5,7 3,0 9,9 NW #15/53 16,8 1028,8 83 0,80
Laag-0,9 -2,6 -   1,6 1026,6 75 -
Dagelijkse Tabular details for Maandag 30 maart 2020
Tijd Temp. ( °C ) Dew pt. ( °C ) Wind ( km/h ) van Windvlaag ( km/h ) Luchtdruk ( hPa ) Humid.( % ) Rainrate ( cm )
00:00 -0,7 -2,3   Kalm 3,2 1031,7 89 -
00:15 -0,9 -2,6 1,6 ZW 3,2 1031,5 88 -
00:30 -0,8 -2,4 1,6 ZW 3,2 1031,3 89 -
00:45 -0,6 -2,1 1,6 ZW 3,2 1031,1 89 -
01:00 0,0 -1,4 1,6 ZW 3,2 1031,0 90 -
01:15 0,5 -1,0 1,6 ZW 3,2 1030,8 90 -
01:30 0,8 -0,8 1,6 WZW 3,2 1030,8 89 -
01:45 1,1 -0,5   Kalm 4,8 1030,7 89 -
02:00 1,4 -0,2   Kalm 1,6 1030,5 89 -
02:15 1,8 0,2   Kalm 4,8 1030,6 89 -
02:30 2,5 0,9 3,2 WZW 4,8 1030,3 89 -
02:45 3,1 1,6 6,4 WNW 9,7 1030,3 90 -
03:00 3,5 2,0 3,2 Westen 11,3 1030,0 90 -
03:15 3,7 2,2 8,0 WNW 12,9 1029,9 90 -
03:30 4,1 2,7 1,6 Westen 9,7 1030,0 91 -
03:45 4,6 3,3 4,8 WNW 12,9 1029,9 91 -
04:00 4,9 3,6 4,8 Westen 11,3 1029,9 91 -
04:15 5,4 3,9 8,0 WNW 11,3 1029,9 90 -
04:30 6,1 4,4 4,8 WNW 11,3 1029,7 89 -
04:45 6,7 4,7 8,0 NW 11,3 1029,6 87 -
05:00 6,1 3,9 9,7 NNW 17,7 1029,6 86 -
05:15 6,6 4,4 8,0 NNW 17,7 1029,4 86 -
05:30 7,1 3,8 16,1 NW 25,7 1029,4 80 -
05:45 7,5 4,1 12,9 NNW 20,9 1029,3 79 -
06:00 7,4 3,3 16,1 NW 19,3 1029,1 75 -
06:15 7,9 3,8 12,9 NW 20,9 1029,0 75 -
06:30 7,5 3,4 12,9 NW 19,3 1028,8 75 -
06:45 7,6 4,0 8,0 NW 22,5 1028,7 78 -
07:00 7,8 4,0 12,9 NNW 20,9 1028,5 77 -
07:15 8,1 4,3 14,5 NNW 19,3 1028,4 77 -
07:30 6,7 4,2 9,7 NNW 27,4 1028,4 84 0,30
07:45 8,1 5,2 14,5 NW 29,0 1028,1 82 0,30
08:00 8,7 5,0 20,9 NW 27,4 1028,0 78 0,30
08:15 8,7 4,7 20,9 NNO 24,1 1027,9 76 0,30
08:30 8,7 4,5 20,9 NNO 25,7 1027,7 75 -
08:45 8,9 4,7 12,9 NNW 22,5 1027,5 75 -
09:00 8,3 4,3 14,5 NW 22,5 1027,5 76 -
09:15 8,7 5,1 12,9 NW 25,7 1027,2 78 -
09:30 7,2 4,3 8,0 NW 27,4 1027,4 82 0,50
09:45 7,6 4,5 17,7 NNW 25,7 1027,2 81 0,50
10:00 7,6 4,5 19,3 NNW 27,4 1027,2 81 0,50
10:15 8,4 5,3 12,9 NW 24,1 1026,9 81 0,50
10:30 8,6 4,6 12,9 NW 24,1 1026,8 76 -
10:45 8,4 4,6 17,7 NW 20,9 1026,8 77 -
11:00 8,5 5,2 14,5 NW 19,3 1026,7 80 -
11:15 8,2 4,7 12,9 NNW 20,9 1026,7 79 -
11:30 7,4 4,3 12,9 NNW 22,5 1026,7 81 -
11:45 6,9 3,9 12,9 Noorden 19,3 1026,7 81 -
12:00 7,4 4,2 16,1 Noorden 22,5 1026,7 80 -
12:15 6,8 3,6 16,1 NNW 22,5 1026,6 80 -
12:30 7,3 3,5 14,5 Noorden 25,7 1026,8 77 -
12:45 6,6 3,2 9,7 Noorden 24,1 1026,8 79 -
13:00 6,6 3,4 12,9 Noorden 17,7 1026,8 80 -

Download your copy of this data-set  here

Our weather-data as stored at Weather Underground. Script ontwikkeld door Jim McMurry. Aangepast voor de template door Leuven-Template.eu

U vindt ons ook hier:

European Weather Network

Weather Underground

AWEKAS

Apparatuur in gebruik:

Weerstation
Davis VP2

Weerprogramma
Cumulus

Davis VP2

Cumulus